sensor_id;sensor_type;location;lat;lon;timestamp;pressure;altitude;pressure_sealevel;temperature;humidity
49397;BME280;35615;41.410;2.194;2023-05-24T00:00:12;101322.22;;;23.64;47.31
49397;BME280;35615;41.410;2.194;2023-05-24T00:02:40;101320.41;;;23.74;47.23
49397;BME280;35615;41.410;2.194;2023-05-24T00:05:09;101318.63;;;23.71;47.34
49397;BME280;35615;41.410;2.194;2023-05-24T00:07:37;101325.66;;;23.71;47.35
49397;BME280;35615;41.410;2.194;2023-05-24T00:10:05;101319.56;;;23.67;47.26
49397;BME280;35615;41.410;2.194;2023-05-24T00:12:32;101323.06;;;23.66;47.45
49397;BME280;35615;41.410;2.194;2023-05-24T00:14:59;101329.22;;;23.67;47.34
49397;BME280;35615;41.410;2.194;2023-05-24T00:17:27;101316.97;;;23.63;47.57
49397;BME280;35615;41.410;2.194;2023-05-24T00:19:56;101309.94;;;23.62;47.34
49397;BME280;35615;41.410;2.194;2023-05-24T00:22:25;101309.94;;;23.59;47.32
49397;BME280;35615;41.410;2.194;2023-05-24T00:24:52;101310.78;;;23.58;47.31
49397;BME280;35615;41.410;2.194;2023-05-24T00:27:22;101306.41;;;23.60;47.12
49397;BME280;35615;41.410;2.194;2023-05-24T00:29:55;101303.75;;;23.57;47.22
49397;BME280;35615;41.410;2.194;2023-05-24T00:32:22;101302.00;;;23.56;47.48
49397;BME280;35615;41.410;2.194;2023-05-24T00:34:49;101300.28;;;23.53;47.39
49397;BME280;35615;41.410;2.194;2023-05-24T00:37:19;101306.44;;;23.52;47.31
49397;BME280;35615;41.410;2.194;2023-05-24T00:39:47;101302.91;;;23.55;47.47
49397;BME280;35615;41.410;2.194;2023-05-24T00:42:15;101307.31;;;23.51;47.40
49397;BME280;35615;41.410;2.194;2023-05-24T00:44:42;101302.94;;;23.47;47.32
49397;BME280;35615;41.410;2.194;2023-05-24T00:47:09;101305.59;;;23.45;47.39
49397;BME280;35615;41.410;2.194;2023-05-24T00:49:39;101303.81;;;23.46;47.34
49397;BME280;35615;41.410;2.194;2023-05-24T00:52:06;101305.63;;;23.41;47.50
49397;BME280;35615;41.410;2.194;2023-05-24T00:54:35;101301.22;;;23.38;47.34
49397;BME280;35615;41.410;2.194;2023-05-24T00:57:05;101303.00;;;23.35;47.40
49397;BME280;35615;41.410;2.194;2023-05-24T00:59:33;101298.63;;;23.34;47.52
49397;BME280;35615;41.410;2.194;2023-05-24T01:02:00;101302.19;;;23.28;47.83
49397;BME280;35615;41.410;2.194;2023-05-24T01:04:27;101289.00;;;23.24;47.95
49397;BME280;35615;41.410;2.194;2023-05-24T01:09:49;101297.84;;;23.19;47.72
49397;BME280;35615;41.410;2.194;2023-05-24T01:18:00;101295.22;;;23.13;47.96
49397;BME280;35615;41.410;2.194;2023-05-24T01:20:31;101298.75;;;23.12;47.64
49397;BME280;35615;41.410;2.194;2023-05-24T01:23:27;101297.88;;;23.12;47.65
49397;BME280;35615;41.410;2.194;2023-05-24T01:26:13;101314.59;;;23.08;47.97
49397;BME280;35615;41.410;2.194;2023-05-24T01:28:45;101304.03;;;23.08;48.01
49397;BME280;35615;41.410;2.194;2023-05-24T01:31:15;101302.28;;;23.04;48.06
49397;BME280;35615;41.410;2.194;2023-05-24T01:33:44;101309.31;;;23.03;48.02
49397;BME280;35615;41.410;2.194;2023-05-24T01:36:11;101304.06;;;23.00;48.13
49397;BME280;35615;41.410;2.194;2023-05-24T01:38:39;101299.69;;;22.99;48.00
49397;BME280;35615;41.410;2.194;2023-05-24T01:41:24;101296.16;;;23.00;47.97
49397;BME280;35615;41.410;2.194;2023-05-24T01:44:03;101309.34;;;22.97;48.42
49397;BME280;35615;41.410;2.194;2023-05-24T01:46:37;101302.31;;;22.98;48.11
49397;BME280;35615;41.410;2.194;2023-05-24T01:51:40;101299.72;;;22.88;48.14
49397;BME280;35615;41.410;2.194;2023-05-24T01:54:12;101298.84;;;22.88;47.97
49397;BME280;35615;41.410;2.194;2023-05-24T01:56:43;101290.94;;;22.86;48.06
49397;BME280;35615;41.410;2.194;2023-05-24T01:59:10;101296.22;;;22.86;48.34
49397;BME280;35615;41.410;2.194;2023-05-24T02:01:41;101289.19;;;22.87;48.25
49397;BME280;35615;41.410;2.194;2023-05-24T02:04:08;101290.06;;;22.86;48.48
49397;BME280;35615;41.410;2.194;2023-05-24T02:06:36;101285.66;;;22.82;48.24
49397;BME280;35615;41.410;2.194;2023-05-24T02:09:06;101283.03;;;22.83;48.23
49397;BME280;35615;41.410;2.194;2023-05-24T02:11:34;101285.66;;;22.83;47.80
49397;BME280;35615;41.410;2.194;2023-05-24T02:14:01;101278.63;;;22.81;48.26
49397;BME280;35615;41.410;2.194;2023-05-24T02:16:28;101281.25;;;22.81;48.47
49397;BME280;35615;41.410;2.194;2023-05-24T02:18:57;101280.41;;;22.79;48.52
49397;BME280;35615;41.410;2.194;2023-05-24T02:21:24;101279.53;;;22.78;48.30
49397;BME280;35615;41.410;2.194;2023-05-24T02:23:51;101273.41;;;22.75;48.33
49397;BME280;35615;41.410;2.194;2023-05-24T02:26:19;101274.25;;;22.78;48.34
49397;BME280;35615;41.410;2.194;2023-05-24T02:28:46;101278.63;;;22.79;48.47
49397;BME280;35615;41.410;2.194;2023-05-24T02:31:14;101276.91;;;22.77;48.19
49397;BME280;35615;41.410;2.194;2023-05-24T02:33:41;101277.78;;;22.77;48.33
49397;BME280;35615;41.410;2.194;2023-05-24T02:36:11;101276.00;;;22.81;48.32
49397;BME280;35615;41.410;2.194;2023-05-24T02:38:39;101272.53;;;22.74;47.67
49397;BME280;35615;41.410;2.194;2023-05-24T02:41:06;101267.28;;;22.73;48.37
49397;BME280;35615;41.410;2.194;2023-05-24T02:43:34;101269.03;;;22.74;48.09
49397;BME280;35615;41.410;2.194;2023-05-24T02:46:02;101265.50;;;22.76;48.06
49397;BME280;35615;41.410;2.194;2023-05-24T02:48:35;101265.50;;;22.76;47.94
49397;BME280;35615;41.410;2.194;2023-05-24T02:51:05;101266.38;;;22.75;47.87
49397;BME280;35615;41.410;2.194;2023-05-24T02:53:33;101268.13;;;22.72;48.10
49397;BME280;35615;41.410;2.194;2023-05-24T02:56:01;101271.63;;;22.71;47.85
49397;BME280;35615;41.410;2.194;2023-05-24T02:58:31;101267.28;;;22.73;48.12
49397;BME280;35615;41.410;2.194;2023-05-24T03:00:59;101269.03;;;22.74;48.12
49397;BME280;35615;41.410;2.194;2023-05-24T03:03:28;101265.50;;;22.72;48.10
49397;BME280;35615;41.410;2.194;2023-05-24T03:05:57;101265.50;;;22.72;48.20
49397;BME280;35615;41.410;2.194;2023-05-24T03:08:25;101269.88;;;22.70;47.96
49397;BME280;35615;41.410;2.194;2023-05-24T03:10:53;101266.41;;;22.65;48.20
49397;BME280;35615;41.410;2.194;2023-05-24T03:13:20;101267.28;;;22.65;47.95
49397;BME280;35615;41.410;2.194;2023-05-24T03:15:47;101262.91;;;22.66;48.26
49397;BME280;35615;41.410;2.194;2023-05-24T03:18:17;101262.91;;;22.66;48.11
49397;BME280;35615;41.410;2.194;2023-05-24T03:20:45;101270.81;;;22.64;47.93
49397;BME280;35615;41.410;2.194;2023-05-24T03:23:12;101269.94;;;22.64;47.98
49397;BME280;35615;41.410;2.194;2023-05-24T03:25:43;101269.91;;;22.65;48.08
49397;BME280;35615;41.410;2.194;2023-05-24T03:28:11;101264.66;;;22.64;47.61
49397;BME280;35615;41.410;2.194;2023-05-24T03:30:42;101263.78;;;22.61;48.23
49397;BME280;35615;41.410;2.194;2023-05-24T03:33:10;101268.19;;;22.63;48.14
49397;BME280;35615;41.410;2.194;2023-05-24T03:35:37;101256.75;;;22.64;48.19
49397;BME280;35615;41.410;2.194;2023-05-24T03:38:05;101262.91;;;22.63;48.19
49397;BME280;35615;41.410;2.194;2023-05-24T03:40:35;101263.78;;;22.58;48.45
49397;BME280;35615;41.410;2.194;2023-05-24T03:43:05;101258.53;;;22.54;48.31
49397;BME280;35615;41.410;2.194;2023-05-24T03:45:50;101260.31;;;22.53;48.32
49397;BME280;35615;41.410;2.194;2023-05-24T03:48:18;101257.66;;;22.55;48.44
49397;BME280;35615;41.410;2.194;2023-05-24T03:50:49;101272.56;;;22.50;48.26
49397;BME280;35615;41.410;2.194;2023-05-24T03:53:17;101266.44;;;22.46;48.68
49397;BME280;35615;41.410;2.194;2023-05-24T03:55:48;101275.22;;;22.45;48.75
49397;BME280;35615;41.410;2.194;2023-05-24T03:58:15;101273.47;;;22.44;48.56
49397;BME280;35615;41.410;2.194;2023-05-24T04:00:43;101272.59;;;22.45;48.39
49397;BME280;35615;41.410;2.194;2023-05-24T04:03:11;101269.09;;;22.39;48.64
49397;BME280;35615;41.410;2.194;2023-05-24T04:05:39;101268.22;;;22.43;48.39
49397;BME280;35615;41.410;2.194;2023-05-24T04:08:06;101270.00;;;22.41;48.55
49397;BME280;35615;41.410;2.194;2023-05-24T04:10:36;101269.09;;;22.37;48.59
49397;BME280;35615;41.410;2.194;2023-05-24T04:13:04;101263.84;;;22.36;48.47
49397;BME280;35615;41.410;2.194;2023-05-24T04:15:35;101263.84;;;22.32;49.01
49397;BME280;35615;41.410;2.194;2023-05-24T04:18:04;101263.84;;;22.34;48.78
49397;BME280;35615;41.410;2.194;2023-05-24T04:20:39;101270.88;;;22.35;48.79
49397;BME280;35615;41.410;2.194;2023-05-24T04:23:08;101268.22;;;22.37;48.69
49397;BME280;35615;41.410;2.194;2023-05-24T04:25:36;101268.25;;;22.30;48.91
49397;BME280;35615;41.410;2.194;2023-05-24T04:28:04;101275.28;;;22.30;49.06
49397;BME280;35615;41.410;2.194;2023-05-24T04:30:33;101278.78;;;22.33;48.82
49397;BME280;35615;41.410;2.194;2023-05-24T04:33:02;101273.50;;;22.33;49.11
49397;BME280;35615;41.410;2.194;2023-05-24T04:35:30;101265.63;;;22.32;48.91
49397;BME280;35615;41.410;2.194;2023-05-24T04:37:57;101268.25;;;22.33;48.84
49397;BME280;35615;41.410;2.194;2023-05-24T04:40:31;101268.25;;;22.29;48.92
49397;BME280;35615;41.410;2.194;2023-05-24T04:42:58;101269.13;;;22.32;48.88
49397;BME280;35615;41.410;2.194;2023-05-24T04:45:31;101263.84;;;22.28;49.22
49397;BME280;35615;41.410;2.194;2023-05-24T04:48:05;101264.75;;;22.30;49.16
49397;BME280;35615;41.410;2.194;2023-05-24T04:50:32;101272.63;;;22.25;49.13
49397;BME280;35615;41.410;2.194;2023-05-24T04:53:01;101267.38;;;22.25;49.10
49397;BME280;35615;41.410;2.194;2023-05-24T04:55:28;101265.63;;;22.24;49.14
49397;BME280;35615;41.410;2.194;2023-05-24T04:57:55;101266.47;;;22.28;49.16
49397;BME280;35615;41.410;2.194;2023-05-24T05:00:26;101266.50;;;22.31;48.93
49397;BME280;35615;41.410;2.194;2023-05-24T05:02:53;101270.00;;;22.31;49.08
49397;BME280;35615;41.410;2.194;2023-05-24T05:05:20;101257.72;;;22.26;49.21
49397;BME280;35615;41.410;2.194;2023-05-24T05:07:48;101259.47;;;22.27;49.29
49397;BME280;35615;41.410;2.194;2023-05-24T05:10:15;101256.84;;;22.24;49.18
49397;BME280;35615;41.410;2.194;2023-05-24T05:12:42;101259.47;;;22.27;49.27
49397;BME280;35615;41.410;2.194;2023-05-24T05:15:10;101259.47;;;22.27;49.36
49397;BME280;35615;41.410;2.194;2023-05-24T05:17:38;101259.47;;;22.27;49.17
49397;BME280;35615;41.410;2.194;2023-05-24T05:20:06;101252.44;;;22.26;49.39
49397;BME280;35615;41.410;2.194;2023-05-24T05:22:33;101257.72;;;22.26;49.30
49397;BME280;35615;41.410;2.194;2023-05-24T05:25:02;101252.44;;;22.27;48.91
49397;BME280;35615;41.410;2.194;2023-05-24T05:27:29;101261.25;;;22.29;49.40
49397;BME280;35615;41.410;2.194;2023-05-24T05:29:56;101255.97;;;22.31;49.02
49397;BME280;35615;41.410;2.194;2023-05-24T05:32:24;101262.09;;;22.35;49.14
49397;BME280;35615;41.410;2.194;2023-05-24T05:34:52;101254.22;;;22.33;49.16
49397;BME280;35615;41.410;2.194;2023-05-24T05:37:22;101257.69;;;22.37;49.40
49397;BME280;35615;41.410;2.194;2023-05-24T05:39:49;101260.31;;;22.37;49.34
49397;BME280;35615;41.410;2.194;2023-05-24T05:42:17;101265.59;;;22.37;49.63
49397;BME280;35615;41.410;2.194;2023-05-24T05:44:44;101258.56;;;22.39;49.90
49397;BME280;35615;41.410;2.194;2023-05-24T05:47:12;101266.47;;;22.39;49.72
49397;BME280;35615;41.410;2.194;2023-05-24T05:49:39;101270.84;;;22.44;49.18
49397;BME280;35615;41.410;2.194;2023-05-24T05:52:06;101271.72;;;22.45;49.47
49397;BME280;35615;41.410;2.194;2023-05-24T05:54:33;101259.44;;;22.44;49.40
49397;BME280;35615;41.410;2.194;2023-05-24T05:57:04;101263.81;;;22.54;49.39
49397;BME280;35615;41.410;2.194;2023-05-24T05:59:33;101260.31;;;22.53;49.53
49397;BME280;35615;41.410;2.194;2023-05-24T06:02:02;101263.81;;;22.54;49.44
49397;BME280;35615;41.410;2.194;2023-05-24T06:04:31;101269.94;;;22.54;49.79
49397;BME280;35615;41.410;2.194;2023-05-24T06:06:58;101272.59;;;22.51;49.68
49397;BME280;35615;41.410;2.194;2023-05-24T06:09:26;101268.22;;;22.52;50.05
49397;BME280;35615;41.410;2.194;2023-05-24T06:11:55;101264.66;;;22.60;49.94
49397;BME280;35615;41.410;2.194;2023-05-24T06:14:22;101269.91;;;22.65;49.58
49397;BME280;35615;41.410;2.194;2023-05-24T06:16:51;101263.75;;;22.71;49.62
49397;BME280;35615;41.410;2.194;2023-05-24T06:19:25;101269.03;;;22.74;49.74
49397;BME280;35615;41.410;2.194;2023-05-24T06:21:52;101276.03;;;22.76;49.79
49397;BME280;35615;41.410;2.194;2023-05-24T06:24:20;101270.72;;;22.81;49.63
49397;BME280;35615;41.410;2.194;2023-05-24T06:26:51;101271.59;;;22.81;49.84
49397;BME280;35615;41.410;2.194;2023-05-24T06:29:19;101267.22;;;22.88;49.58
49397;BME280;35615;41.410;2.194;2023-05-24T06:31:49;101266.31;;;22.92;49.81
49397;BME280;35615;41.410;2.194;2023-05-24T06:34:20;101268.09;;;22.92;49.79
49397;BME280;35615;41.410;2.194;2023-05-24T06:36:47;101268.97;;;22.95;49.76
49397;BME280;35615;41.410;2.194;2023-05-24T06:39:20;101268.06;;;22.93;49.58
49397;BME280;35615;41.410;2.194;2023-05-24T06:41:49;101270.66;;;23.02;49.60
49397;BME280;35615;41.410;2.194;2023-05-24T06:44:23;101270.63;;;23.13;49.56
49397;BME280;35615;41.410;2.194;2023-05-24T06:46:56;101263.63;;;23.07;49.89
49397;BME280;35615;41.410;2.194;2023-05-24T06:49:26;101260.91;;;23.21;49.43
49397;BME280;35615;41.410;2.194;2023-05-24T06:51:53;101269.66;;;23.29;49.43
49397;BME280;35615;41.410;2.194;2023-05-24T06:54:20;101262.56;;;23.36;49.15
49397;BME280;35615;41.410;2.194;2023-05-24T06:56:48;101268.75;;;23.33;49.33
49397;BME280;35615;41.410;2.194;2023-05-24T06:59:15;101267.84;;;23.40;48.93
49397;BME280;35615;41.410;2.194;2023-05-24T07:01:44;101266.00;;;23.48;48.94
49397;BME280;35615;41.410;2.194;2023-05-24T07:04:12;101265.94;;;23.61;48.73
49397;BME280;35615;41.410;2.194;2023-05-24T07:06:39;101265.94;;;23.65;48.48
49397;BME280;35615;41.410;2.194;2023-05-24T07:09:07;101264.09;;;23.72;48.67
49397;BME280;35615;41.410;2.194;2023-05-24T07:11:36;101259.69;;;23.75;48.56
49397;BME280;35615;41.410;2.194;2023-05-24T07:14:03;101260.56;;;23.77;48.41
49397;BME280;35615;41.410;2.194;2023-05-24T07:16:35;101256.97;;;23.86;48.15
49397;BME280;35615;41.410;2.194;2023-05-24T07:19:02;101265.69;;;23.97;48.28
49397;BME280;35615;41.410;2.194;2023-05-24T07:21:30;101257.75;;;23.97;48.28
49397;BME280;35615;41.410;2.194;2023-05-24T07:23:58;101261.19;;;24.04;47.76
49397;BME280;35615;41.410;2.194;2023-05-24T07:26:25;101262.84;;;24.16;47.51
49397;BME280;35615;41.410;2.194;2023-05-24T07:28:52;101259.31;;;24.20;47.63
49397;BME280;35615;41.410;2.194;2023-05-24T07:31:22;101260.09;;;24.29;47.37
49397;BME280;35615;41.410;2.194;2023-05-24T07:33:49;101267.94;;;24.40;47.15
49397;BME280;35615;41.410;2.194;2023-05-24T07:36:17;101260.88;;;24.42;46.90
49397;BME280;35615;41.410;2.194;2023-05-24T07:38:47;101270.44;;;24.52;46.97
49397;BME280;35615;41.410;2.194;2023-05-24T07:41:14;101267.69;;;24.60;46.87
49397;BME280;35615;41.410;2.194;2023-05-24T07:43:42;101273.75;;;24.70;46.54
49397;BME280;35615;41.410;2.194;2023-05-24T07:46:09;101271.81;;;24.82;46.40
49397;BME280;35615;41.410;2.194;2023-05-24T07:48:40;101272.63;;;24.90;46.27
49397;BME280;35615;41.410;2.194;2023-05-24T07:51:10;101269.91;;;24.97;45.57
49397;BME280;35615;41.410;2.194;2023-05-24T07:53:38;101265.38;;;25.08;45.50
49397;BME280;35615;41.410;2.194;2023-05-24T07:56:08;101269.78;;;25.09;44.91
49397;BME280;35615;41.410;2.194;2023-05-24T07:58:35;101269.56;;;25.24;45.00
49397;BME280;35615;41.410;2.194;2023-05-24T08:01:03;101274.72;;;25.33;44.08
49397;BME280;35615;41.410;2.194;2023-05-24T08:03:31;101272.00;;;25.39;42.88
49397;BME280;35615;41.410;2.194;2023-05-24T08:06:00;101269.91;;;25.61;42.02
49397;BME280;35615;41.410;2.194;2023-05-24T08:08:28;101274.88;;;25.81;42.31
49397;BME280;35615;41.410;2.194;2023-05-24T08:10:56;101283.53;;;25.92;42.23
49397;BME280;35615;41.410;2.194;2023-05-24T08:13:23;101273.88;;;25.90;40.85
49397;BME280;35615;41.410;2.194;2023-05-24T08:15:50;101278.75;;;26.13;40.50
49397;BME280;35615;41.410;2.194;2023-05-24T08:18:17;101270.53;;;26.29;40.19
49397;BME280;35615;41.410;2.194;2023-05-24T08:20:46;101271.03;;;26.51;40.59
49397;BME280;35615;41.410;2.194;2023-05-24T08:23:13;101269.69;;;26.74;40.28
49397;BME280;35615;41.410;2.194;2023-05-24T08:25:42;101265.66;;;26.98;40.06
49397;BME280;35615;41.410;2.194;2023-05-24T08:28:10;101263.16;;;27.32;39.73
49397;BME280;35615;41.410;2.194;2023-05-24T08:30:38;101266.06;;;27.58;39.36
49397;BME280;35615;41.410;2.194;2023-05-24T08:33:05;101255.03;;;27.76;37.99
49397;BME280;35615;41.410;2.194;2023-05-24T08:35:32;101262.38;;;28.01;37.76
49397;BME280;35615;41.410;2.194;2023-05-24T08:38:01;101254.63;;;28.27;37.37
49397;BME280;35615;41.410;2.194;2023-05-24T08:40:28;101257.59;;;28.48;36.54
49397;BME280;35615;41.410;2.194;2023-05-24T08:42:59;101262.22;;;28.72;35.52
49397;BME280;35615;41.410;2.194;2023-05-24T08:45:31;101262.34;;;27.67;37.39
49397;BME280;35615;41.410;2.194;2023-05-24T08:47:58;101261.97;;;28.49;36.52
49397;BME280;35615;41.410;2.194;2023-05-24T08:50:27;101262.09;;;28.46;36.83
49397;BME280;35615;41.410;2.194;2023-05-24T08:52:56;101259.53;;;28.74;36.68
49397;BME280;35615;41.410;2.194;2023-05-24T08:55:30;101254.38;;;28.68;36.68
49397;BME280;35615;41.410;2.194;2023-05-24T08:57:59;101253.72;;;28.90;35.71
49397;BME280;35615;41.410;2.194;2023-05-24T09:00:26;101260.88;;;28.88;35.29
49397;BME280;35615;41.410;2.194;2023-05-24T09:02:55;101259.13;;;29.45;34.83
49397;BME280;35615;41.410;2.194;2023-05-24T09:05:24;101256.44;;;28.89;35.03
49397;BME280;35615;41.410;2.194;2023-05-24T09:07:53;101261.97;;;29.11;35.14
49397;BME280;35615;41.410;2.194;2023-05-24T09:10:21;101263.28;;;29.55;34.13
49397;BME280;35615;41.410;2.194;2023-05-24T09:12:54;101259.25;;;29.42;33.12
49397;BME280;35615;41.410;2.194;2023-05-24T09:15:25;101262.09;;;29.90;33.70
49397;BME280;35615;41.410;2.194;2023-05-24T09:17:53;101259.41;;;29.65;33.63
49397;BME280;35615;41.410;2.194;2023-05-24T09:20:20;101252.63;;;29.55;32.50
49397;BME280;35615;41.410;2.194;2023-05-24T09:22:51;101253.03;;;29.69;32.45
49397;BME280;35615;41.410;2.194;2023-05-24T09:25:19;101250.06;;;30.05;32.37
49397;BME280;35615;41.410;2.194;2023-05-24T09:27:51;101255.66;;;30.47;31.98
49397;BME280;35615;41.410;2.194;2023-05-24T09:30:19;101250.81;;;30.58;31.86
49397;BME280;35615;41.410;2.194;2023-05-24T09:32:57;101247.13;;;30.62;30.93
49397;BME280;35615;41.410;2.194;2023-05-24T09:35:26;101245.38;;;30.61;31.19
49397;BME280;35615;41.410;2.194;2023-05-24T09:37:55;101247.75;;;30.94;31.11
49397;BME280;35615;41.410;2.194;2023-05-24T09:40:23;101246.19;;;31.10;31.43
49397;BME280;35615;41.410;2.194;2023-05-24T09:43:10;101249.50;;;31.40;30.04
49397;BME280;35615;41.410;2.194;2023-05-24T09:48:13;101258.09;;;31.69;30.69
49397;BME280;35615;41.410;2.194;2023-05-24T09:50:41;101246.19;;;31.34;30.64
49397;BME280;35615;41.410;2.194;2023-05-24T09:53:09;101262.28;;;31.76;30.28
49397;BME280;35615;41.410;2.194;2023-05-24T09:55:37;101262.41;;;31.51;30.26
49397;BME280;35615;41.410;2.194;2023-05-24T09:58:08;101270.22;;;31.56;29.68
49397;BME280;35615;41.410;2.194;2023-05-24T10:00:39;101258.53;;;31.13;29.68
49397;BME280;35615;41.410;2.194;2023-05-24T10:03:10;101269.56;;;31.04;30.58
49397;BME280;35615;41.410;2.194;2023-05-24T10:05:45;101261.00;;;31.19;29.39
49397;BME280;35615;41.410;2.194;2023-05-24T10:08:12;101269.91;;;31.41;29.78
49397;BME280;35615;41.410;2.194;2023-05-24T10:10:40;101265.81;;;31.33;30.32
49397;BME280;35615;41.410;2.194;2023-05-24T10:13:09;101267.47;;;31.35;30.26
49397;BME280;35615;41.410;2.194;2023-05-24T10:15:37;101267.03;;;31.24;29.65
49397;BME280;35615;41.410;2.194;2023-05-24T10:18:04;101266.00;;;31.50;29.84
49397;BME280;35615;41.410;2.194;2023-05-24T10:20:37;101273.97;;;31.51;30.04
49397;BME280;35615;41.410;2.194;2023-05-24T10:23:08;101272.09;;;31.75;29.50
49397;BME280;35615;41.410;2.194;2023-05-24T10:25:40;101272.09;;;31.75;29.02
49397;BME280;35615;41.410;2.194;2023-05-24T10:28:11;101275.81;;;31.71;29.45
49397;BME280;35615;41.410;2.194;2023-05-24T10:33:59;101271.16;;;31.33;29.83
49397;BME280;35615;41.410;2.194;2023-05-24T10:36:34;101258.38;;;30.71;30.55
49397;BME280;35615;41.410;2.194;2023-05-24T10:39:03;101271.53;;;31.45;29.77
49397;BME280;35615;41.410;2.194;2023-05-24T10:41:39;101268.03;;;31.21;29.39
49397;BME280;35615;41.410;2.194;2023-05-24T10:44:12;101274.88;;;31.72;28.84
49397;BME280;35615;41.410;2.194;2023-05-24T10:47:05;101269.72;;;31.46;29.67
49397;BME280;35615;41.410;2.194;2023-05-24T10:49:35;101271.88;;;31.36;29.46
49397;BME280;35615;41.410;2.194;2023-05-24T10:52:07;101272.88;;;31.10;30.01
49397;BME280;35615;41.410;2.194;2023-05-24T10:54:35;101266.75;;;31.32;29.89
49397;BME280;35615;41.410;2.194;2023-05-24T10:57:08;101271.53;;;31.45;30.02
49397;BME280;35615;41.410;2.194;2023-05-24T10:59:37;101270.28;;;31.54;29.76
49397;BME280;35615;41.410;2.194;2023-05-24T11:02:09;101267.69;;;31.52;28.76
49397;BME280;35615;41.410;2.194;2023-05-24T11:04:44;101272.31;;;31.69;29.47
49397;BME280;35615;41.410;2.194;2023-05-24T11:07:15;101273.06;;;31.73;29.31
49397;BME280;35615;41.410;2.194;2023-05-24T11:09:47;101276.34;;;32.01;29.17
49397;BME280;35615;41.410;2.194;2023-05-24T11:12:19;101278.69;;;32.09;29.11
49397;BME280;35615;41.410;2.194;2023-05-24T11:14:52;101274.28;;;32.08;29.06
49397;BME280;35615;41.410;2.194;2023-05-24T11:17:21;101283.06;;;31.68;28.67
49397;BME280;35615;41.410;2.194;2023-05-24T11:19:53;101274.41;;;31.85;29.26
49397;BME280;35615;41.410;2.194;2023-05-24T11:22:23;101272.97;;;31.76;29.21
49397;BME280;35615;41.410;2.194;2023-05-24T11:24:51;101285.22;;;31.82;29.38
49397;BME280;35615;41.410;2.194;2023-05-24T11:27:19;101278.88;;;31.40;29.58
49397;BME280;35615;41.410;2.194;2023-05-24T11:29:48;101272.44;;;31.22;29.89
49397;BME280;35615;41.410;2.194;2023-05-24T11:32:18;101286.03;;;31.15;30.45
49397;BME280;35615;41.410;2.194;2023-05-24T11:34:46;101280.75;;;31.59;29.69
49397;BME280;35615;41.410;2.194;2023-05-24T11:37:14;101281.06;;;31.74;29.56
49397;BME280;35615;41.410;2.194;2023-05-24T11:39:48;101288.03;;;31.55;29.89
49397;BME280;35615;41.410;2.194;2023-05-24T11:42:16;101290.34;;;31.19;30.26
49397;BME280;35615;41.410;2.194;2023-05-24T11:44:50;101293.88;;;30.48;31.45
49397;BME280;35615;41.410;2.194;2023-05-24T11:47:19;101277.06;;;31.17;30.64
49397;BME280;35615;41.410;2.194;2023-05-24T11:49:49;101277.84;;;30.98;31.30
49397;BME280;35615;41.410;2.194;2023-05-24T11:52:16;101275.34;;;30.93;31.40
49397;BME280;35615;41.410;2.194;2023-05-24T11:54:44;101286.66;;;30.26;32.28
49397;BME280;35615;41.410;2.194;2023-05-24T11:57:11;101285.22;;;29.90;33.06
49397;BME280;35615;41.410;2.194;2023-05-24T11:59:40;101294.19;;;29.87;33.90
49397;BME280;35615;41.410;2.194;2023-05-24T12:02:07;101292.50;;;29.85;34.95
49397;BME280;35615;41.410;2.194;2023-05-24T12:04:35;101294.06;;;29.90;34.60
49397;BME280;35615;41.410;2.194;2023-05-24T12:07:02;101301.94;;;30.21;34.10
49397;BME280;35615;41.410;2.194;2023-05-24T12:09:29;101289.25;;;29.75;33.85
49397;BME280;35615;41.410;2.194;2023-05-24T12:11:57;101298.63;;;30.40;33.53
49397;BME280;35615;41.410;2.194;2023-05-24T12:14:28;101287.28;;;30.08;32.61
49397;BME280;35615;41.410;2.194;2023-05-24T12:16:57;101266.63;;;30.15;32.76
49397;BME280;35615;41.410;2.194;2023-05-24T12:19:29;101265.19;;;30.04;32.68
49397;BME280;35615;41.410;2.194;2023-05-24T12:22:03;101262.75;;;30.23;33.03
49397;BME280;35615;41.410;2.194;2023-05-24T12:24:32;101254.63;;;29.47;33.88
49397;BME280;35615;41.410;2.194;2023-05-24T12:27:01;101265.88;;;29.29;34.24
49397;BME280;35615;41.410;2.194;2023-05-24T12:29:39;101260.66;;;29.54;34.18
49397;BME280;35615;41.410;2.194;2023-05-24T12:32:11;101267.03;;;29.48;34.31
49397;BME280;35615;41.410;2.194;2023-05-24T12:34:44;101270.78;;;29.97;33.58
49397;BME280;35615;41.410;2.194;2023-05-24T12:37:13;101269.88;;;30.23;33.11
49397;BME280;35615;41.410;2.194;2023-05-24T12:39:40;101269.44;;;30.35;33.31
49397;BME280;35615;41.410;2.194;2023-05-24T12:42:10;101253.84;;;30.49;32.96
49397;BME280;35615;41.410;2.194;2023-05-24T12:44:40;101250.78;;;30.10;33.44
49397;BME280;35615;41.410;2.194;2023-05-24T12:47:08;101254.47;;;30.56;33.71
49397;BME280;35615;41.410;2.194;2023-05-24T12:49:35;101255.09;;;30.14;33.87
49397;BME280;35615;41.410;2.194;2023-05-24T12:52:03;101259.59;;;30.62;32.93
49397;BME280;35615;41.410;2.194;2023-05-24T12:54:30;101246.75;;;30.73;33.39
49397;BME280;35615;41.410;2.194;2023-05-24T12:56:58;101241.78;;;31.09;32.47
49397;BME280;35615;41.410;2.194;2023-05-24T12:59:34;101236.41;;;30.87;33.45
49397;BME280;35615;41.410;2.194;2023-05-24T13:02:02;101235.50;;;31.34;32.79
49397;BME280;35615;41.410;2.194;2023-05-24T13:04:29;101244.44;;;31.55;32.39
49397;BME280;35615;41.410;2.194;2023-05-24T13:07:02;101267.16;;;31.65;32.49
49397;BME280;35615;41.410;2.194;2023-05-24T13:09:31;101269.59;;;31.27;32.78
49397;BME280;35615;41.410;2.194;2023-05-24T13:11:59;101271.84;;;31.14;33.14
49397;BME280;35615;41.410;2.194;2023-05-24T13:14:27;101275.88;;;30.54;33.56
49397;BME280;35615;41.410;2.194;2023-05-24T13:16:56;101276.72;;;30.05;33.61